Time;durP1;ratioP1;P1;durP2;ratioP2;P2;SDS_P1;SDS_P2;PMS_P1;PMS_P2;Temp;Humidity;BMP_temperature;BMP_pressure;BME280_temperature;BME280_humidity;BME280_pressure;Samples;Min_cycle;Max_cycle;Signal;HPM_P1;HPM_P2
2021/10/15 00:01:29;;;;;;;15.55;7.25;;;;;;;22.38;45.39;100694.50;4421874;32;20611;-69
2021/10/15 00:03:55;;;;;;;12.32;7.07;;;;;;;22.19;45.85;100693.44;4419671;32;20033;-68
2021/10/15 00:06:21;;;;;;;13.20;7.25;;;;;;;22.38;45.36;100691.63;4422488;32;20148;-68
2021/10/15 00:08:46;;;;;;;13.90;7.95;;;;;;;22.30;45.05;100687.72;4421238;32;20046;-68
2021/10/15 00:11:12;;;;;;;15.00;7.30;;;;;;;22.03;46.07;100685.63;4426683;32;20042;-68
2021/10/15 00:13:38;;;;;;;13.82;7.35;;;;;;;22.09;45.93;100687.16;4423590;32;20049;-68
2021/10/15 00:16:04;;;;;;;14.43;6.18;;;;;;;22.04;45.86;100690.03;4420290;32;20085;-68
2021/10/15 00:18:29;;;;;;;11.88;6.40;;;;;;;21.82;46.27;100693.66;4422981;32;20083;-68
2021/10/15 00:20:55;;;;;;;11.90;6.35;;;;;;;21.99;45.66;100693.69;4423381;32;20075;-68
2021/10/15 00:23:21;;;;;;;8.20;5.82;;;;;;;21.74;46.48;100686.06;4422367;32;20100;-68
2021/10/15 00:25:46;;;;;;;11.55;6.50;;;;;;;21.62;46.84;100691.75;4425000;32;20324;-68
2021/10/15 00:28:12;;;;;;;9.30;5.72;;;;;;;21.98;46.19;100689.25;4423633;32;20309;-68
2021/10/15 00:30:38;;;;;;;9.07;5.80;;;;;;;21.89;46.36;100690.28;4421454;32;20106;-68
2021/10/15 00:33:04;;;;;;;10.30;4.65;;;;;;;22.21;45.89;100682.25;4421453;32;20304;-68
2021/10/15 00:35:29;;;;;;;7.47;4.12;;;;;;;22.29;45.73;100680.41;4423372;32;20135;-68
2021/10/15 00:37:55;;;;;;;5.85;4.20;;;;;;;21.50;47.52;100683.63;4419892;32;20462;-68
2021/10/15 00:40:22;;;;;;;4.95;4.00;;;;;;;21.95;46.48;100681.69;4419754;32;20090;-68
2021/10/15 00:42:47;;;;;;;5.30;3.40;;;;;;;22.09;46.71;100687.16;4424858;32;20074;-68
2021/10/15 00:45:13;;;;;;;7.05;3.50;;;;;;;21.89;47.23;100698.88;4425550;32;20156;-68
2021/10/15 00:47:39;;;;;;;4.50;3.30;;;;;;;21.91;47.42;100707.75;4424128;32;20091;-67
2021/10/15 00:50:05;;;;;;;5.78;3.33;;;;;;;22.00;47.78;100706.72;4425685;32;20088;-68
2021/10/15 00:52:31;;;;;;;4.43;2.90;;;;;;;21.99;47.58;100702.28;4424401;32;20099;-67
2021/10/15 00:54:57;;;;;;;5.78;2.92;;;;;;;21.76;48.33;100715.78;4423171;32;20333;-67
2021/10/15 00:57:23;;;;;;;3.00;1.95;;;;;;;22.10;47.81;100708.81;4424315;32;20054;-66
2021/10/15 00:59:50;;;;;;;3.80;1.70;;;;;;;21.78;48.25;100706.69;4424446;32;20053;-66
2021/10/15 01:02:16;;;;;;;3.37;1.30;;;;;;;21.97;48.38;100710.63;4415891;32;20104;-67
2021/10/15 01:04:41;;;;;;;3.15;1.20;;;;;;;21.90;48.27;100711.91;4422163;32;20208;-67
2021/10/15 01:07:07;;;;;;;1.27;0.80;;;;;;;21.81;48.53;100719.97;4419533;32;20166;-67
2021/10/15 01:09:34;;;;;;;1.77;1.00;;;;;;;21.76;48.82;100712.13;4423769;32;20078;-66
2021/10/15 01:12:02;;;;;;;2.58;1.25;;;;;;;22.01;49.00;100711.13;4418001;32;20367;-66
2021/10/15 01:14:29;;;;;;;2.60;1.40;;;;;;;21.85;49.28;100721.28;4423008;32;20053;-66
2021/10/15 01:16:55;;;;;;;2.78;1.75;;;;;;;21.93;49.00;100715.84;4418541;32;20041;-67
2021/10/15 01:19:21;;;;;;;1.08;0.98;;;;;;;21.84;49.17;100713.97;4425360;32;20159;-67
2021/10/15 01:21:48;;;;;;;1.73;0.80;;;;;;;21.94;48.47;100717.38;4419518;32;20081;-66
2021/10/15 01:24:14;;;;;;;1.70;0.70;;;;;;;21.41;49.86;100723.94;4418864;32;20076;-68
2021/10/15 01:26:41;;;;;;;0.30;0.20;;;;;;;21.16;49.84;100768.59;4422932;32;20498;-67
2021/10/15 01:29:07;;;;;;;0.77;0.20;;;;;;;20.61;47.40;100785.31;4423782;32;20049;-67
2021/10/15 01:31:33;;;;;;;1.00;0.32;;;;;;;20.51;47.81;100785.97;4418829;32;20073;-68
2021/10/15 01:33:59;;;;;;;0.70;0.20;;;;;;;19.88;47.76;100778.56;4421271;32;20491;-68
2021/10/15 01:36:26;;;;;;;0.30;0.15;;;;;;;19.07;49.82;100783.41;4420393;32;20093;-68
2021/10/15 01:38:53;;;;;;;0.60;0.30;;;;;;;19.30;49.71;100793.91;4420201;32;20139;-68
2021/10/15 01:41:18;;;;;;;2.22;0.60;;;;;;;19.16;50.17;100808.97;4424469;32;20306;-68
2021/10/15 01:43:44;;;;;;;2.30;0.52;;;;;;;19.43;49.16;100812.22;4420879;32;20525;-68
2021/10/15 01:46:10;;;;;;;2.37;0.62;;;;;;;19.51;49.44;100815.44;4419798;32;20950;-68
2021/10/15 01:48:36;;;;;;;3.33;0.57;;;;;;;19.41;49.54;100822.59;4417486;32;20109;-68
2021/10/15 01:51:02;;;;;;;1.48;0.77;;;;;;;19.34;50.09;100825.88;4421080;32;20040;-68
2021/10/15 01:53:28;;;;;;;2.12;0.82;;;;;;;19.19;50.39;100822.25;4423949;32;20034;-68
2021/10/15 01:55:54;;;;;;;3.42;0.93;;;;;;;19.50;49.77;100825.31;4423319;32;20100;-68
2021/10/15 01:58:20;;;;;;;2.97;1.30;;;;;;;19.45;49.30;100820.28;4424299;32;20682;-68
2021/10/15 02:00:47;;;;;;;2.12;0.93;;;;;;;19.25;49.63;100825.97;4424585;32;20504;-68
2021/10/15 02:03:13;;;;;;;3.50;1.30;;;;;;;19.32;49.26;100829.22;4418616;32;20096;-68
2021/10/15 02:05:39;;;;;;;2.08;1.15;;;;;;;19.58;49.27;100824.38;4421616;32;20427;-68
2021/10/15 02:08:05;;;;;;;2.72;1.10;;;;;;;19.68;49.32;100828.69;4419669;32;20077;-68
2021/10/15 02:10:31;;;;;;;2.92;1.10;;;;;;;19.84;48.59;100835.88;4424238;32;20029;-68
2021/10/15 02:12:57;;;;;;;4.95;1.20;;;;;;;19.82;48.59;100841.31;4422441;32;20029;-68
2021/10/15 02:15:23;;;;;;;2.83;1.33;;;;;;;19.87;48.59;100846.31;4416424;32;20093;-68
2021/10/15 02:17:49;;;;;;;2.70;1.30;;;;;;;19.67;48.61;100846.31;4422004;32;20107;-69
2021/10/15 02:20:18;;;;;;;3.05;1.73;;;;;;;19.59;48.50;100851.66;4422995;32;20100;-69
2021/10/15 02:22:46;;;;;;;2.33;1.42;;;;;;;19.32;49.26;100856.97;4426534;32;20050;-69
2021/10/15 02:25:14;;;;;;;2.97;1.40;;;;;;;19.70;48.74;100853.87;4420642;32;20076;-68
2021/10/15 02:27:40;;;;;;;3.05;1.67;;;;;;;19.79;48.66;100854.53;4426017;32;20435;-68
2021/10/15 02:30:09;;;;;;;3.90;1.30;;;;;;;19.70;49.27;100851.03;4426952;32;20103;-68
2021/10/15 02:32:35;;;;;;;4.25;1.52;;;;;;;19.89;48.63;100860.87;4423662;32;20107;-68
2021/10/15 02:35:01;;;;;;;2.65;1.70;;;;;;;19.27;48.86;100867.00;4421755;32;20113;-68
2021/10/15 02:37:27;;;;;;;4.47;1.70;;;;;;;19.52;48.86;100874.13;4426453;32;20065;-68
2021/10/15 02:39:52;;;;;;;5.35;2.20;;;;;;;19.33;48.91;100872.81;4423080;32;20060;-68
2021/10/15 02:42:18;;;;;;;4.20;1.85;;;;;;;19.34;48.82;100860.91;4427049;32;20093;-68
2021/10/15 02:44:44;;;;;;;5.78;1.87;;;;;;;19.64;48.60;100865.22;4422866;32;20046;-68
2021/10/15 02:47:09;;;;;;;4.78;1.85;;;;;;;19.45;48.15;100871.69;4428358;32;20077;-68
2021/10/15 02:49:35;;;;;;;4.65;1.60;;;;;;;19.38;48.72;100880.66;4423596;32;20038;-68
2021/10/15 02:52:01;;;;;;;2.60;1.48;;;;;;;19.51;48.33;100884.75;4424921;32;20111;-68
2021/10/15 02:54:27;;;;;;;3.53;1.50;;;;;;;19.31;48.76;100893.28;4422146;32;20042;-68
2021/10/15 02:56:53;;;;;;;7.00;1.77;;;;;;;19.22;48.23;100893.38;4426081;32;20120;-68
2021/10/15 02:59:19;;;;;;;2.65;1.58;;;;;;;19.31;48.79;100893.28;4425308;32;20040;-68
2021/10/15 03:01:44;;;;;;;4.12;1.73;;;;;;;19.07;48.74;100903.22;4425086;32;20164;-68
2021/10/15 03:04:10;;;;;;;4.07;1.85;;;;;;;19.47;48.60;100897.66;4424184;32;20521;-68
2021/10/15 03:06:36;;;;;;;2.45;1.50;;;;;;;19.07;48.87;100900.38;4424592;32;20486;-68
2021/10/15 03:09:02;;;;;;;3.67;1.77;;;;;;;19.18;48.60;100911.97;4422527;32;20207;-68
2021/10/15 03:11:28;;;;;;;6.37;1.95;;;;;;;19.46;48.48;100916.84;4422867;32;20113;-68
2021/10/15 03:13:54;;;;;;;4.45;2.05;;;;;;;19.25;48.49;100909.50;4426153;32;20042;-68
2021/10/15 03:16:19;;;;;;;4.28;2.20;;;;;;;19.15;48.80;100916.56;4423097;32;20493;-68
2021/10/15 03:18:45;;;;;;;6.05;2.00;;;;;;;19.08;48.65;100922.69;4425187;32;20510;-68
2021/10/15 03:21:11;;;;;;;4.05;1.95;;;;;;;19.01;48.61;100916.59;4425646;32;20108;-68
2021/10/15 03:23:38;;;;;;;4.40;2.30;;;;;;;19.11;48.86;100923.75;4421175;32;20475;-68
2021/10/15 03:26:03;;;;;;;4.40;2.05;;;;;;;18.85;49.35;100932.16;4422630;32;20082;-68
2021/10/15 03:28:29;;;;;;;6.40;1.98;;;;;;;19.29;48.20;100946.41;4426372;32;20049;-68
2021/10/15 03:30:55;;;;;;;5.35;2.20;;;;;;;19.31;48.24;100932.44;4421033;32;20475;-69
2021/10/15 03:33:20;;;;;;;4.82;2.30;;;;;;;19.22;47.69;100932.53;4426797;32;20277;-69
2021/10/15 03:35:46;;;;;;;5.43;2.00;;;;;;;19.08;48.20;100927.59;4425267;32;20045;-69
2021/10/15 03:38:12;;;;;;;5.35;1.98;;;;;;;19.21;47.24;100922.41;4422633;32;20430;-69
2021/10/15 03:40:37;;;;;;;2.28;1.60;;;;;;;19.08;47.33;100925.53;4422411;32;20115;-69
2021/10/15 03:43:03;;;;;;;5.57;1.52;;;;;;;19.33;47.08;100941.31;4418703;32;20089;-69
2021/10/15 03:45:29;;;;;;;4.97;1.50;;;;;;;18.98;47.50;100943.25;4425416;32;20042;-69
2021/10/15 03:47:55;;;;;;;4.90;1.33;;;;;;;19.09;47.16;100949.16;4421644;32;20379;-69
2021/10/15 03:50:20;;;;;;;3.80;1.30;;;;;;;18.96;47.33;100951.53;4427211;32;20037;-69
2021/10/15 03:52:46;;;;;;;3.22;1.30;;;;;;;19.01;47.13;100956.53;4421666;32;20082;-69
2021/10/15 03:55:13;;;;;;;6.57;0.90;;;;;;;19.16;46.76;100957.31;4422739;32;20088;-68
2021/10/15 03:57:42;;;;;;;3.47;0.90;;;;;;;19.15;46.63;100956.53;4424544;32;20085;-68
2021/10/15 04:00:11;;;;;;;4.70;1.23;;;;;;;19.22;46.32;100961.06;4423458;32;20034;-68
2021/10/15 04:02:40;;;;;;;6.07;0.98;;;;;;;19.14;46.42;100954.97;4417073;32;20082;-68
2021/10/15 04:05:07;;;;;;;3.30;0.90;;;;;;;19.09;46.67;100955.63;4424536;32;20391;-68
2021/10/15 04:07:34;;;;;;;4.45;0.90;;;;;;;19.13;46.09;100959.09;4422927;32;20104;-68
2021/10/15 04:10:00;;;;;;;5.68;1.00;;;;;;;18.95;45.87;100969.91;4423966;32;20081;-68
2021/10/15 04:12:25;;;;;;;6.05;1.00;;;;;;;18.97;46.12;100953.88;4423929;32;20042;-68
2021/10/15 04:14:51;;;;;;;7.10;1.85;;;;;;;19.07;46.02;100960.28;4423988;32;20037;-68
2021/10/15 04:17:16;;;;;;;7.05;0.85;;;;;;;18.99;45.85;100950.56;4421778;32;20470;-68
2021/10/15 04:19:42;;;;;;;3.17;1.30;;;;;;;19.06;45.16;100964.41;4424100;32;20034;-68
2021/10/15 04:22:10;;;;;;;1.98;0.70;;;;;;;19.10;45.47;100962.13;4421631;32;20093;-68
2021/10/15 04:24:37;;;;;;;7.15;1.00;;;;;;;18.84;46.04;100967.62;4424731;32;20033;-68
2021/10/15 04:27:06;;;;;;;3.58;0.60;;;;;;;18.96;46.02;100972.25;4422175;32;20106;-68
2021/10/15 04:29:31;;;;;;;2.03;0.60;;;;;;;18.85;46.24;100976.97;4425167;32;20112;-68
2021/10/15 04:31:57;;;;;;;7.28;1.52;;;;;;;18.73;46.02;100976.00;4422902;32;20085;-68
2021/10/15 04:34:23;;;;;;;2.60;0.80;;;;;;;18.26;46.75;100978.09;4416479;32;20080;-68
2021/10/15 04:36:49;;;;;;;5.00;0.80;;;;;;;18.44;46.24;100995.09;4422446;32;20498;-68
2021/10/15 04:39:14;;;;;;;5.10;0.75;;;;;;;18.30;46.37;100998.63;4422359;32;20081;-68
2021/10/15 04:41:40;;;;;;;5.78;0.80;;;;;;;18.18;46.55;101003.31;4426400;32;20096;-68
2021/10/15 04:44:06;;;;;;;11.82;1.00;;;;;;;18.25;46.51;101005.00;4421407;32;20088;-68
2021/10/15 04:46:32;;;;;;;4.00;0.80;;;;;;;18.02;46.56;101000.88;4424667;32;20037;-68
2021/10/15 04:48:57;;;;;;;6.35;0.77;;;;;;;17.68;47.45;101010.69;4424227;32;20545;-68
2021/10/15 04:51:23;;;;;;;7.65;1.17;;;;;;;17.76;47.31;101005.44;4420259;32;21226;-68
2021/10/15 04:53:49;;;;;;;2.90;0.62;;;;;;;17.81;47.02;101005.59;4423297;32;20165;-68
2021/10/15 04:56:15;;;;;;;4.90;1.02;;;;;;;17.68;47.37;101002.13;4421609;32;20081;-68
2021/10/15 04:58:41;;;;;;;4.95;1.05;;;;;;;17.65;47.36;101008.78;4421719;32;20140;-68
2021/10/15 05:01:07;;;;;;;5.12;0.90;;;;;;;17.46;47.51;101012.22;4423767;32;20396;-68
2021/10/15 05:03:33;;;;;;;4.57;0.80;;;;;;;17.47;46.91;101011.75;4421244;32;20628;-68
2021/10/15 05:05:59;;;;;;;10.13;2.00;;;;;;;17.25;47.56;101007.50;4423109;32;20087;-68
2021/10/15 05:08:30;;;;;;;4.68;0.68;;;;;;;17.34;47.77;101019.63;4423518;32;20161;-68
2021/10/15 05:10:56;;;;;;;6.97;1.02;;;;;;;17.31;47.80;101014.91;4421593;32;20055;-68
2021/10/15 05:13:22;;;;;;;3.45;0.50;;;;;;;17.17;48.01;101014.78;4423964;32;20096;-68
2021/10/15 05:15:47;;;;;;;5.62;1.05;;;;;;;17.07;47.66;101011.19;4420417;32;20458;-68
2021/10/15 05:18:14;;;;;;;5.20;0.80;;;;;;;17.07;47.51;101018.91;4424276;32;20455;-68
2021/10/15 05:20:41;;;;;;;4.82;0.60;;;;;;;17.23;47.52;101024.25;4414484;32;20093;-68
2021/10/15 05:23:08;;;;;;;5.72;1.17;;;;;;;17.08;47.64;101029.81;4424124;32;20088;-67
2021/10/15 05:25:34;;;;;;;3.75;0.80;;;;;;;17.00;47.60;101019.25;4419197;32;21060;-67
2021/10/15 05:28:04;;;;;;;6.25;1.15;;;;;;;17.07;47.26;101027.44;4424414;32;20096;-67
2021/10/15 05:30:30;;;;;;;8.88;1.00;;;;;;;17.16;47.37;101033.91;4415320;32;20033;-67
2021/10/15 05:32:56;;;;;;;4.97;1.20;;;;;;;16.95;47.66;101032.03;4425823;32;20406;-67
2021/10/15 05:35:22;;;;;;;5.53;0.82;;;;;;;16.85;47.50;101039.00;4419851;32;20072;-67
2021/10/15 05:37:48;;;;;;;4.25;0.70;;;;;;;16.91;47.50;101044.84;4423205;32;20085;-67
2021/10/15 05:40:14;;;;;;;4.85;0.90;;;;;;;16.90;47.57;101046.87;4420687;32;20148;-69
2021/10/15 05:42:46;;;;;;;5.75;0.90;;;;;;;16.90;47.46;101051.78;4424163;32;20053;-69
2021/10/15 05:45:12;;;;;;;5.55;1.00;;;;;;;17.10;47.25;101052.88;4423172;32;20112;-69
2021/10/15 05:47:38;;;;;;;6.85;1.08;;;;;;;16.84;47.79;101048.78;4422375;32;20107;-69
2021/10/15 05:50:04;;;;;;;2.65;0.75;;;;;;;16.73;48.00;101054.16;4426044;32;20417;-68
2021/10/15 05:52:48;;;;;;;7.87;1.20;;;;;;;16.68;48.12;101062.50;4426210;32;20081;-68
2021/10/15 06:00:34;;;;;;;4.22;1.33;;;;;;;16.94;48.06;101086.53;3985556;32;15022762;-68
2021/10/15 06:03:01;;;;;;;7.35;1.50;;;;;;;16.94;48.06;101086.53;4438790;32;20052;-68
2021/10/15 06:16:21;;;;;;;;;;;;;;;16.48;48.27;101084.91;4438651;32;20060;-68
2021/10/15 06:19:21;;;;;;;7.37;1.25;;;;;;;16.84;47.21;101096.34;4438444;32;19952;-68
2021/10/15 06:21:33;;;;;;;;;;;;;;;16.46;48.04;101093.91;4439305;32;20438;-68
2021/10/15 06:23:59;;;;;;;4.32;1.02;;;;;;;16.77;47.51;101100.28;4441020;32;19956;-68
2021/10/15 06:26:25;;;;;;;2.42;0.73;;;;;;;16.38;48.27;101106.03;4439208;32;20033;-69
2021/10/15 06:28:50;;;;;;;4.28;0.90;;;;;;;16.39;47.99;101105.56;4435320;32;20045;-69
2021/10/15 06:31:16;;;;;;;3.42;0.90;;;;;;;16.57;47.56;101119.03;4435936;32;20645;-69
2021/10/15 06:33:42;;;;;;;2.55;0.62;;;;;;;16.72;47.47;101120.78;4438168;32;20112;-69
2021/10/15 06:36:08;;;;;;;6.00;0.70;;;;;;;16.69;47.17;101120.94;4433358;32;20099;-69
2021/10/15 06:38:34;;;;;;;5.80;0.90;;;;;;;16.67;46.86;101115.75;4436269;32;20026;-69
2021/10/15 06:40:59;;;;;;;4.62;0.82;;;;;;;16.64;47.02;101119.53;4436668;32;20049;-69
2021/10/15 06:43:25;;;;;;;7.40;0.98;;;;;;;16.43;46.52;101128.94;4431885;32;20052;-69
2021/10/15 06:45:52;;;;;;;6.32;1.40;;;;;;;16.97;45.90;101140.38;4433180;32;20068;-68
2021/10/15 06:48:18;;;;;;;4.20;0.80;;;;;;;16.88;46.49;101143.22;4431918;32;20603;-69
2021/10/15 06:50:43;;;;;;;5.43;1.33;;;;;;;16.63;46.79;101149.19;4432631;32;20050;-69
2021/10/15 06:53:10;;;;;;;5.47;0.68;;;;;;;16.46;46.19;101150.72;4424804;32;20152;-69
2021/10/15 06:55:36;;;;;;;4.78;0.85;;;;;;;16.64;46.96;101150.78;4428215;32;20076;-69
2021/10/15 06:58:03;;;;;;;5.28;1.12;;;;;;;16.61;47.25;101150.91;4432993;32;20081;-68
2021/10/15 07:00:30;;;;;;;9.82;1.20;;;;;;;16.63;47.16;101149.19;4430504;32;20037;-69
2021/10/15 07:02:56;;;;;;;6.05;1.23;;;;;;;16.51;47.48;101152.94;4430609;32;20735;-68
2021/10/15 07:05:24;;;;;;;7.10;0.82;;;;;;;16.44;47.37;101155.31;4434062;32;20144;-69
2021/10/15 07:07:51;;;;;;;5.60;2.20;;;;;;;16.25;47.47;101170.66;4428485;32;20046;-69
2021/10/15 07:10:18;;;;;;;4.30;1.40;;;;;;;16.21;47.29;101164.34;4422997;32;20041;-69
2021/10/15 07:12:45;;;;;;;5.07;1.27;;;;;;;16.30;47.64;101173.69;4422890;32;20050;-69
2021/10/15 07:15:14;;;;;;;6.82;1.40;;;;;;;16.27;47.15;101179.50;4422616;32;20079;-69
2021/10/15 07:17:40;;;;;;;6.60;1.33;;;;;;;16.48;47.16;101176.63;4412445;32;20370;-69
2021/10/15 07:20:09;;;;;;;4.45;1.17;;;;;;;16.54;46.72;101191.78;4408707;32;21606;-69
2021/10/15 07:22:35;;;;;;;9.48;2.03;;;;;;;16.47;47.00;101194.91;4417364;32;20556;-68
2021/10/15 07:25:01;;;;;;;7.70;1.52;;;;;;;16.44;46.83;101192.25;4411479;32;20064;-69
2021/10/15 07:27:27;;;;;;;7.85;1.20;;;;;;;16.65;46.75;101197.81;4416417;32;20449;-68
2021/10/15 07:29:53;;;;;;;3.87;1.20;;;;;;;16.65;47.10;101199.87;4418542;32;20033;-69
2021/10/15 07:32:19;;;;;;;5.85;1.33;;;;;;;16.52;46.66;101213.41;4418726;32;20061;-69
2021/10/15 07:34:44;;;;;;;7.72;1.62;;;;;;;16.75;46.87;101210.03;4417506;32;20433;-69
2021/10/15 07:37:10;;;;;;;5.32;0.98;;;;;;;16.67;46.40;101209.53;4417292;32;20148;-69
2021/10/15 07:39:36;;;;;;;5.90;1.65;;;;;;;16.77;46.46;101205.44;4412840;32;20127;-69
2021/10/15 07:42:03;;;;;;;4.40;1.15;;;;;;;16.83;46.22;101205.59;4416911;32;20037;-69
2021/10/15 07:44:31;;;;;;;7.30;1.30;;;;;;;16.74;46.24;101225.47;4417799;32;20154;-69
2021/10/15 07:46:57;;;;;;;7.00;1.80;;;;;;;16.98;46.12;101218.75;4418140;32;20108;-69
2021/10/15 07:49:23;;;;;;;4.32;1.02;;;;;;;17.17;46.21;101230.94;4410707;32;20069;-69
2021/10/15 07:51:48;;;;;;;9.13;1.62;;;;;;;17.30;45.11;101223.84;4416276;32;20105;-70
2021/10/15 07:54:14;;;;;;;7.47;1.00;;;;;;;17.58;44.90;101239.69;4411461;32;20150;-69
2021/10/15 07:56:40;;;;;;;5.07;0.80;;;;;;;17.61;44.27;101243.63;4416900;32;20033;-69
2021/10/15 07:59:06;;;;;;;1.58;0.65;;;;;;;17.86;44.60;101243.31;4415099;32;20073;-70
2021/10/15 08:01:32;;;;;;;8.05;1.35;;;;;;;18.15;44.06;101239.91;4416246;32;20352;-70
2021/10/15 08:03:59;;;;;;;6.57;1.30;;;;;;;18.42;43.17;101248.41;4417182;32;20125;-69
2021/10/15 08:06:25;;;;;;;3.67;1.15;;;;;;;18.54;42.41;101256.75;4415423;32;20357;-69
2021/10/15 08:08:51;;;;;;;3.20;0.95;;;;;;;18.80;41.94;101266.44;4416117;32;20978;-69
2021/10/15 08:11:19;;;;;;;5.32;0.93;;;;;;;18.81;41.24;101265.16;4417030;32;20097;-68
2021/10/15 08:13:45;;;;;;;6.72;1.00;;;;;;;19.22;41.16;101269.22;4414642;32;20073;-69
2021/10/15 08:16:11;;;;;;;7.43;1.30;;;;;;;19.24;41.53;101269.53;4416101;32;20735;-69
2021/10/15 08:18:36;;;;;;;6.30;1.70;;;;;;;19.39;40.29;101279.75;4416291;32;20683;-69
2021/10/15 08:21:02;;;;;;;5.50;1.00;;;;;;;19.67;39.99;101280.34;4418220;32;20476;-68
2021/10/15 08:23:29;;;;;;;2.15;0.80;;;;;;;19.71;39.52;101290.31;4420378;32;20041;-69
2021/10/15 08:25:57;;;;;;;6.32;1.20;;;;;;;20.16;38.72;101285.47;4417306;32;20064;-69
2021/10/15 08:28:24;;;;;;;6.57;1.08;;;;;;;20.01;38.63;101288.28;4417939;32;20169;-69
2021/10/15 08:30:52;;;;;;;10.00;0.98;;;;;;;20.22;37.90;101289.22;4417087;32;20042;-68
2021/10/15 08:33:18;;;;;;;8.38;1.08;;;;;;;20.60;38.25;101284.19;4418804;32;20474;-69
2021/10/15 08:35:45;;;;;;;5.57;1.10;;;;;;;20.66;37.80;101292.84;4418664;32;20149;-69
2021/10/15 08:38:10;;;;;;;4.37;1.00;;;;;;;20.96;37.45;101298.03;4413405;32;20145;-69
2021/10/15 08:40:36;;;;;;;7.57;1.45;;;;;;;20.95;35.96;101290.75;4418024;32;20080;-70
2021/10/15 08:43:02;;;;;;;7.68;1.25;;;;;;;20.90;35.73;101290.63;4419024;32;20038;-69
2021/10/15 08:45:31;;;;;;;8.38;1.35;;;;;;;20.72;36.33;101300.25;4416187;32;20096;-69
2021/10/15 08:47:59;;;;;;;11.52;1.50;;;;;;;20.54;36.48;101293.94;4416621;32;20097;-70
2021/10/15 08:50:25;;;;;;;7.10;1.15;;;;;;;20.83;37.24;101300.41;4409253;32;20142;-69
2021/10/15 08:52:51;;;;;;;5.40;1.33;;;;;;;21.17;36.38;101301.75;4414560;32;20069;-70
2021/10/15 08:55:20;;;;;;;5.60;1.12;;;;;;;21.42;35.77;101303.94;4415496;32;20119;-69
2021/10/15 08:57:51;;;;;;;12.00;1.50;;;;;;;21.68;35.54;101304.78;4413237;32;20049;-69
2021/10/15 09:03:17;;;;;;;17.10;1.95;;;;;;;22.05;33.74;101304.97;3971314;32;15205539;-70
2021/10/15 09:05:55;;;;;;;8.88;1.95;;;;;;;22.18;34.92;101308.25;4428442;32;20147;-70
2021/10/15 09:08:22;;;;;;;7.47;1.30;;;;;;;22.16;34.01;101305.09;4428530;32;20033;-70
2021/10/15 09:10:48;;;;;;;8.18;1.42;;;;;;;21.88;34.49;101307.66;4426431;32;20065;-71
2021/10/15 09:13:19;;;;;;;9.60;1.98;;;;;;;22.05;34.43;101322.16;4428103;32;20077;-70
2021/10/15 09:15:47;;;;;;;5.60;1.30;;;;;;;22.28;33.77;101318.25;4426518;32;20076;-69
2021/10/15 09:18:20;;;;;;;7.22;2.10;;;;;;;22.86;32.99;101314.91;4426369;32;20434;-69
2021/10/15 09:20:48;;;;;;;13.27;1.77;;;;;;;23.17;32.39;101312.75;4419480;32;20391;-69
2021/10/15 09:23:15;;;;;;;9.05;1.67;;;;;;;23.31;32.40;101313.94;4427975;32;20135;-68
2021/10/15 09:25:43;;;;;;;10.25;1.70;;;;;;;23.72;32.02;101320.16;4427887;32;20067;-68
2021/10/15 09:28:19;;;;;;;7.07;1.52;;;;;;;24.19;31.24;101322.97;4419380;32;20097;-68
2021/10/15 09:30:49;;;;;;;12.82;1.92;;;;;;;24.58;30.27;101320.16;4422913;32;20158;-68
2021/10/15 09:33:17;;;;;;;9.43;1.90;;;;;;;24.58;31.13;101320.16;4428248;32;20513;-69
2021/10/15 09:35:43;;;;;;;7.00;1.67;;;;;;;24.92;29.70;101330.38;4422826;32;20493;-70
2021/10/15 09:38:10;;;;;;;12.18;1.92;;;;;;;25.01;29.38;101324.34;4425949;32;20105;-69
2021/10/15 09:40:39;;;;;;;12.00;2.35;;;;;;;25.22;29.40;101334.28;4425401;32;20101;-69
2021/10/15 09:43:07;;;;;;;9.20;1.87;;;;;;;24.44;29.80;101326.91;4427436;32;20573;-69
2021/10/15 09:45:37;;;;;;;9.23;1.85;;;;;;;24.87;30.24;101331.94;4426830;32;20077;-69
2021/10/15 09:48:22;;;;;;;7.60;1.95;;;;;;;24.92;29.38;101339.81;4432777;32;20080;-69
2021/10/15 09:51:22;;;;;;;6.95;1.80;;;;;;;25.26;28.86;101347.09;4416490;32;20179;-70
2021/10/15 09:54:11;;;;;;;13.25;2.50;;;;;;;25.16;29.31;101340.03;4421416;32;20422;-69
2021/10/15 09:56:39;;;;;;;14.13;1.70;;;;;;;25.07;29.42;101346.06;4427471;32;20037;-69
2021/10/15 09:59:06;;;;;;;10.65;2.40;;;;;;;25.29;29.21;101342.37;4428136;32;20445;-69
2021/10/15 10:01:35;;;;;;;11.38;2.45;;;;;;;24.97;29.93;101359.16;4426792;32;20194;-68
2021/10/15 10:04:03;;;;;;;16.62;2.08;;;;;;;25.35;28.81;101361.25;4425970;32;20568;-69
2021/10/15 10:06:29;;;;;;;14.95;2.55;;;;;;;25.04;29.02;101357.88;4429227;32;20149;-69
2021/10/15 10:08:55;;;;;;;17.48;2.67;;;;;;;25.77;28.65;101359.31;4427087;32;20427;-69
2021/10/15 10:11:21;;;;;;;12.95;2.67;;;;;;;26.18;28.47;101360.22;4423887;32;20103;-68
2021/10/15 10:13:48;;;;;;;12.20;2.58;;;;;;;26.05;28.63;101365.78;4418784;32;20093;-68
2021/10/15 10:16:15;;;;;;;10.88;2.37;;;;;;;26.32;27.13;101359.84;4415689;32;20081;-68
2021/10/15 10:18:45;;;;;;;17.17;3.08;;;;;;;26.37;27.72;101353.28;4415773;32;20073;-68
2021/10/15 10:21:21;;;;;;;7.78;2.33;;;;;;;26.94;27.04;101363.91;4413861;32;20070;-68
2021/10/15 10:23:54;;;;;;;12.82;2.87;;;;;;;26.80;27.24;101362.19;4414138;32;20056;-69
2021/10/15 10:26:22;;;;;;;16.55;2.60;;;;;;;26.80;26.62;101368.75;4417884;32;20142;-69
2021/10/15 10:29:06;;;;;;;12.90;2.62;;;;;;;26.00;27.48;101372.34;4417895;32;20093;-69
2021/10/15 10:31:34;;;;;;;;;;;;;;;26.36;27.29;101374.00;4415700;32;20107;-69
2021/10/15 10:34:04;;;;;;;14.15;2.60;;;;;;;26.69;26.84;101374.59;4417837;32;20417;-69
2021/10/15 10:36:33;;;;;;;10.27;2.83;;;;;;;27.32;26.75;101371.47;4413379;32;20070;-68
2021/10/15 10:42:13;;;;;;;9.98;2.15;;;;;;;27.77;25.57;101392.81;3975662;32;15025217;-69
2021/10/15 10:47:21;;;;;;;12.68;2.35;;;;;;;27.33;26.27;101386.72;3980799;31;15016277;-69
2021/10/15 10:50:09;;;;;;;10.00;2.05;;;;;;;27.33;26.27;101386.72;4430391;32;20124;-69
2021/10/15 10:55:54;;;;;;;13.05;2.30;;;;;;;28.14;25.56;101397.91;3984060;32;15045079;-69
2021/10/15 10:58:36;;;;;;;11.00;2.22;;;;;;;28.14;25.56;101397.91;4424038;32;20517;-69
2021/10/15 11:01:26;;;;;;;9.75;2.67;;;;;;;26.99;25.47;101391.97;4438395;32;20590;-69
2021/10/15 11:03:54;;;;;;;11.38;2.65;;;;;;;26.63;25.90;101381.75;4443350;32;20123;-69
2021/10/15 11:06:21;;;;;;;14.35;2.70;;;;;;;26.03;27.06;101388.59;4442294;32;20658;-68
2021/10/15 11:08:47;;;;;;;14.55;2.53;;;;;;;24.63;28.58;101385.53;4443077;32;20159;-68
2021/10/15 11:14:21;;;;;;;16.45;2.90;;;;;;;24.30;29.87;101389.13;3949512;32;15726494;-68
2021/10/15 11:16:46;;;;;;;13.32;2.22;;;;;;;24.30;29.87;101389.13;4426034;32;20092;-68
2021/10/15 11:19:17;;;;;;;12.43;2.25;;;;;;;24.08;30.01;101379.66;4424528;32;20057;-67
2021/10/15 11:21:43;;;;;;;10.30;2.10;;;;;;;23.16;30.81;101379.31;4410493;32;20131;-67
2021/10/15 11:24:12;;;;;;;10.98;1.92;;;;;;;23.15;31.98;101372.00;4425734;32;20084;-68
2021/10/15 11:26:38;;;;;;;16.58;2.40;;;;;;;24.30;30.22;101380.50;4423913;32;20037;-68
2021/10/15 11:29:04;;;;;;;19.27;2.80;;;;;;;25.25;28.94;101385.09;4427323;32;20159;-68
2021/10/15 11:31:29;;;;;;;14.05;2.47;;;;;;;26.89;26.38;101387.84;4399494;32;20061;-68
2021/10/15 11:34:13;;;;;;;11.32;2.12;;;;;;;27.34;25.80;101394.06;4425125;32;20463;-68
2021/10/15 11:36:39;;;;;;;10.75;2.45;;;;;;;26.99;25.89;101392.75;4413611;32;20103;-68
2021/10/15 11:39:05;;;;;;;11.20;2.28;;;;;;;25.85;26.81;101401.50;4422950;32;20056;-68
2021/10/15 11:41:31;;;;;;;14.27;2.42;;;;;;;25.68;27.60;101399.97;4424353;32;20406;-68
2021/10/15 11:43:57;;;;;;;15.93;2.40;;;;;;;25.11;27.99;101395.56;4415485;32;20464;-68
2021/10/15 11:46:29;;;;;;;17.40;2.58;;;;;;;25.14;28.49;101397.41;4423836;32;20584;-68
2021/10/15 11:48:55;;;;;;;14.00;2.42;;;;;;;25.21;28.63;101398.94;4426572;32;20110;-68
2021/10/15 11:51:23;;;;;;;16.37;2.62;;;;;;;24.83;28.91;101403.41;4426563;32;20489;-68
2021/10/15 11:53:51;;;;;;;14.43;2.17;;;;;;;25.27;28.60;101396.84;4426362;32;20129;-68
2021/10/15 11:56:26;;;;;;;12.63;2.50;;;;;;;25.62;27.54;101399.19;4425609;32;20056;-69